AUA13D LOWW-LSZH
Flight info
| Callsign | AUA13D |
|---|---|
| Flight time | 1h 1m |
| Altitude | 30000 |
| Route | SOVIL DCT SITNI DCT BAGSI DCT MATIG DCT TRAUN DCT KONIN/N0309F120 L856 NEGRA |
| Aircraft | B738/M-SDE2E3FGHIRWXY/LB1 |
Departure
| Time | 2026-05-01 08:03 |
|---|---|
| Airport | Vienna International Airport (LOWW) |
Arrival
| Time | 2026-05-01 09:04 |
|---|---|
| Airport | Zürich Airport (LSZH) |
| Time | Latitude | Longitude | Altitude | Speed | Heading |
|---|---|---|---|---|---|
| 2026-05-01 07:56 | 48.11467 | 16.57018 | 606 ft | 0 kts | 206° |
| 2026-05-01 07:57 | 48.11456 | 16.57011 | 606 ft | 2 kts | 205° |
| 2026-05-01 07:57 | 48.11408 | 16.56997 | 606 ft | 6 kts | 153° |
| 2026-05-01 07:58 | 48.11319 | 16.57063 | 606 ft | 0 kts | 185° |
| 2026-05-01 07:59 | 48.11290 | 16.57063 | 606 ft | 1 kts | 157° |
| 2026-05-01 07:59 | 48.11262 | 16.57140 | 605 ft | 3 kts | 113° |
| 2026-05-01 08:00 | 48.11178 | 16.57396 | 602 ft | 8 kts | 105° |
| 2026-05-01 08:01 | 48.11066 | 16.57523 | 600 ft | 3 kts | 197° |
| 2026-05-01 08:01 | 48.11005 | 16.57480 | 600 ft | 12 kts | 205° |
| 2026-05-01 08:01 | 48.10960 | 16.57422 | 602 ft | 5 kts | 264° |
| 2026-05-01 08:02 | 48.11129 | 16.56887 | 604 ft | 95 kts | 296° |
| 2026-05-01 08:02 | 48.11524 | 16.55651 | 588 ft | 165 kts | 296° |
| 2026-05-01 08:03 | 48.12671 | 16.52135 | 1654 ft | 212 kts | 297° |
| 2026-05-01 08:03 | 48.12919 | 16.49986 | 2055 ft | 214 kts | 260° |
| 2026-05-01 08:03 | 48.10833 | 16.46758 | 2972 ft | 229 kts | 218° |
| 2026-05-01 08:04 | 48.08676 | 16.43203 | 3874 ft | 234 kts | 232° |
| 2026-05-01 08:04 | 48.06664 | 16.39333 | 4787 ft | 239 kts | 234° |
| 2026-05-01 08:05 | 48.04626 | 16.35253 | 5718 ft | 262 kts | 234° |
| 2026-05-01 08:05 | 48.03608 | 16.32846 | 6163 ft | 277 kts | 249° |
| 2026-05-01 08:05 | 48.03285 | 16.30039 | 6606 ft | 277 kts | 276° |
| 2026-05-01 08:06 | 48.03442 | 16.24273 | 7522 ft | 282 kts | 274° |
| 2026-05-01 08:06 | 48.03518 | 16.18406 | 8421 ft | 288 kts | 275° |
| 2026-05-01 08:07 | 48.03614 | 16.12388 | 9329 ft | 291 kts | 275° |
| 2026-05-01 08:07 | 48.03716 | 16.06273 | 9962 ft | 300 kts | 275° |
| 2026-05-01 08:08 | 48.03770 | 16.03210 | 9973 ft | 293 kts | 275° |
| 2026-05-01 08:08 | 48.03869 | 15.97121 | 9992 ft | 297 kts | 275° |
| 2026-05-01 08:09 | 48.03959 | 15.90960 | 9981 ft | 297 kts | 275° |
| 2026-05-01 08:09 | 48.04001 | 15.87928 | 10318 ft | 293 kts | 275° |
| 2026-05-01 08:09 | 48.04049 | 15.84812 | 10833 ft | 311 kts | 276° |
| 2026-05-01 08:10 | 48.04157 | 15.77844 | 11784 ft | 363 kts | 275° |
| 2026-05-01 08:10 | 48.04261 | 15.70120 | 12732 ft | 380 kts | 275° |
| 2026-05-01 08:11 | 48.04353 | 15.62216 | 13683 ft | 384 kts | 275° |
| 2026-05-01 08:11 | 48.04448 | 15.54137 | 14646 ft | 393 kts | 275° |
| 2026-05-01 08:12 | 48.04542 | 15.45937 | 15595 ft | 401 kts | 275° |
| 2026-05-01 08:12 | 48.04587 | 15.41766 | 16069 ft | 404 kts | 275° |
| 2026-05-01 08:12 | 48.04696 | 15.33344 | 17019 ft | 412 kts | 275° |
| 2026-05-01 08:13 | 48.04769 | 15.29059 | 17491 ft | 415 kts | 275° |
| 2026-05-01 08:13 | 48.04837 | 15.24739 | 17963 ft | 418 kts | 275° |
| 2026-05-01 08:13 | 48.04971 | 15.16052 | 18907 ft | 426 kts | 275° |
| 2026-05-01 08:14 | 48.05036 | 15.11604 | 19388 ft | 430 kts | 276° |
| 2026-05-01 08:14 | 48.05096 | 15.07126 | 19868 ft | 432 kts | 276° |
| 2026-05-01 08:14 | 48.05164 | 15.02629 | 20349 ft | 436 kts | 276° |
| 2026-05-01 08:14 | 48.05224 | 14.98142 | 20828 ft | 439 kts | 276° |
| 2026-05-01 08:15 | 48.05284 | 14.93562 | 21320 ft | 442 kts | 276° |
| 2026-05-01 08:15 | 48.05405 | 14.84323 | 22307 ft | 449 kts | 276° |
| 2026-05-01 08:15 | 48.05456 | 14.79696 | 22797 ft | 453 kts | 276° |
| 2026-05-01 08:16 | 48.05490 | 14.74981 | 23294 ft | 457 kts | 276° |
| 2026-05-01 08:16 | 48.05528 | 14.70217 | 23792 ft | 459 kts | 276° |
| 2026-05-01 08:16 | 48.05567 | 14.65487 | 24282 ft | 462 kts | 276° |
| 2026-05-01 08:16 | 48.05605 | 14.60669 | 24779 ft | 466 kts | 275° |
| 2026-05-01 08:17 | 48.05638 | 14.55817 | 25277 ft | 469 kts | 275° |
| 2026-05-01 08:17 | 48.05665 | 14.50991 | 25749 ft | 470 kts | 276° |
| 2026-05-01 08:17 | 48.05693 | 14.46099 | 26154 ft | 476 kts | 276° |
| 2026-05-01 08:17 | 48.05724 | 14.41122 | 26785 ft | 477 kts | 276° |
| 2026-05-01 08:18 | 48.05745 | 14.36231 | 27433 ft | 475 kts | 276° |
| 2026-05-01 08:18 | 48.05789 | 14.26422 | 28466 ft | 477 kts | 275° |
| 2026-05-01 08:19 | 48.05817 | 14.16667 | 28984 ft | 463 kts | 275° |
| 2026-05-01 08:19 | 48.05832 | 14.11911 | 29250 ft | 465 kts | 275° |
| 2026-05-01 08:19 | 48.05850 | 14.07048 | 29517 ft | 467 kts | 275° |
| 2026-05-01 08:19 | 48.05863 | 14.02214 | 29780 ft | 468 kts | 275° |
| 2026-05-01 08:20 | 48.05870 | 13.97364 | 30039 ft | 465 kts | 275° |
| 2026-05-01 08:20 | 48.05877 | 13.92589 | 30306 ft | 462 kts | 275° |
| 2026-05-01 08:20 | 48.05883 | 13.87823 | 30772 ft | 460 kts | 275° |
| 2026-05-01 08:20 | 48.05888 | 13.83015 | 30883 ft | 466 kts | 275° |
| 2026-05-01 08:21 | 48.05888 | 13.78163 | 30779 ft | 466 kts | 275° |
| 2026-05-01 08:21 | 48.05883 | 13.73363 | 30659 ft | 467 kts | 275° |
| 2026-05-01 08:21 | 48.05882 | 13.68466 | 30575 ft | 473 kts | 275° |
| 2026-05-01 08:22 | 48.05872 | 13.58702 | 30392 ft | 472 kts | 275° |
| 2026-05-01 08:22 | 48.05799 | 13.53854 | 30757 ft | 467 kts | 271° |
| 2026-05-01 08:22 | 48.05465 | 13.48967 | 30846 ft | 481 kts | 267° |
| 2026-05-01 08:23 | 48.04602 | 13.39162 | 30833 ft | 473 kts | 267° |
| 2026-05-01 08:23 | 48.03774 | 13.29462 | 30832 ft | 474 kts | 266° |
| 2026-05-01 08:24 | 48.02929 | 13.19659 | 30769 ft | 475 kts | 266° |
| 2026-05-01 08:24 | 48.02090 | 13.10025 | 30734 ft | 471 kts | 266° |
| 2026-05-01 08:25 | 48.01228 | 13.00307 | 30702 ft | 473 kts | 266° |
| 2026-05-01 08:25 | 48.00364 | 12.90656 | 30676 ft | 471 kts | 266° |
| 2026-05-01 08:26 | 47.99493 | 12.80971 | 30650 ft | 471 kts | 266° |
| 2026-05-01 08:26 | 47.98622 | 12.71376 | 30626 ft | 471 kts | 266° |
| 2026-05-01 08:27 | 47.97737 | 12.61701 | 30598 ft | 470 kts | 266° |
| 2026-05-01 08:27 | 47.96856 | 12.52092 | 30573 ft | 471 kts | 266° |
| 2026-05-01 08:28 | 47.95956 | 12.42479 | 30545 ft | 468 kts | 266° |
| 2026-05-01 08:28 | 47.95061 | 12.32882 | 30520 ft | 469 kts | 265° |
| 2026-05-01 08:29 | 47.94147 | 12.23238 | 30494 ft | 470 kts | 265° |
| 2026-05-01 08:29 | 47.93234 | 12.13674 | 30466 ft | 467 kts | 265° |
| 2026-05-01 08:30 | 47.92313 | 12.04134 | 30440 ft | 465 kts | 265° |
| 2026-05-01 08:30 | 47.91387 | 11.94672 | 30413 ft | 466 kts | 265° |
| 2026-05-01 08:31 | 47.90449 | 11.85132 | 30387 ft | 467 kts | 265° |
| 2026-05-01 08:31 | 47.89505 | 11.75609 | 30359 ft | 464 kts | 265° |
| 2026-05-01 08:32 | 47.88550 | 11.66057 | 30334 ft | 467 kts | 265° |
| 2026-05-01 08:32 | 47.87594 | 11.56554 | 30305 ft | 465 kts | 265° |
| 2026-05-01 08:33 | 47.86636 | 11.47124 | 30278 ft | 463 kts | 265° |
| 2026-05-01 08:33 | 47.85665 | 11.37642 | 30251 ft | 463 kts | 265° |
| 2026-05-01 08:34 | 47.84698 | 11.28220 | 30321 ft | 460 kts | 264° |
| 2026-05-01 08:34 | 47.84210 | 11.23537 | 30648 ft | 460 kts | 264° |
| 2026-05-01 08:34 | 47.83720 | 11.18840 | 30671 ft | 467 kts | 264° |
| 2026-05-01 08:35 | 47.82726 | 11.09402 | 30617 ft | 458 kts | 264° |
| 2026-05-01 08:35 | 47.81728 | 11.00038 | 30568 ft | 460 kts | 264° |
| 2026-05-01 08:36 | 47.80717 | 10.90686 | 30516 ft | 461 kts | 264° |
| 2026-05-01 08:36 | 47.79707 | 10.81338 | 30463 ft | 460 kts | 264° |
| 2026-05-01 08:37 | 47.78693 | 10.71955 | 30410 ft | 460 kts | 264° |
| 2026-05-01 08:37 | 47.77659 | 10.62572 | 30356 ft | 460 kts | 264° |
| 2026-05-01 08:38 | 47.76623 | 10.53264 | 30302 ft | 458 kts | 264° |
| 2026-05-01 08:38 | 47.75584 | 10.43957 | 30249 ft | 459 kts | 264° |
| 2026-05-01 08:39 | 47.74616 | 10.34716 | 29989 ft | 446 kts | 268° |
| 2026-05-01 08:39 | 47.74452 | 10.30176 | 29507 ft | 443 kts | 271° |
| 2026-05-01 08:39 | 47.74367 | 10.25633 | 29030 ft | 442 kts | 271° |
| 2026-05-01 08:39 | 47.74275 | 10.21074 | 28548 ft | 442 kts | 271° |
| 2026-05-01 08:40 | 47.74069 | 10.12025 | 27591 ft | 440 kts | 271° |
| 2026-05-01 08:40 | 47.73966 | 10.07485 | 27110 ft | 440 kts | 271° |
| 2026-05-01 08:40 | 47.73858 | 10.02975 | 26628 ft | 439 kts | 270° |
| 2026-05-01 08:41 | 47.73750 | 9.98439 | 26145 ft | 438 kts | 270° |
| 2026-05-01 08:41 | 47.73639 | 9.93994 | 25670 ft | 437 kts | 270° |
| 2026-05-01 08:41 | 47.73523 | 9.89491 | 25192 ft | 436 kts | 270° |
| 2026-05-01 08:41 | 47.73406 | 9.85000 | 24713 ft | 435 kts | 270° |
| 2026-05-01 08:42 | 47.73286 | 9.80518 | 24242 ft | 434 kts | 270° |
| 2026-05-01 08:42 | 47.73170 | 9.76078 | 23771 ft | 433 kts | 270° |
| 2026-05-01 08:42 | 47.73053 | 9.71653 | 23304 ft | 432 kts | 270° |
| 2026-05-01 08:42 | 47.72937 | 9.67225 | 22842 ft | 431 kts | 270° |
| 2026-05-01 08:43 | 47.72815 | 9.62782 | 22380 ft | 430 kts | 270° |
| 2026-05-01 08:43 | 47.72693 | 9.58360 | 21916 ft | 429 kts | 270° |
| 2026-05-01 08:43 | 47.72566 | 9.53941 | 21452 ft | 428 kts | 269° |
| 2026-05-01 08:43 | 47.72422 | 9.49600 | 21001 ft | 428 kts | 267° |
| 2026-05-01 08:44 | 47.71899 | 9.45223 | 20529 ft | 429 kts | 256° |
| 2026-05-01 08:44 | 47.70857 | 9.41097 | 20071 ft | 428 kts | 244° |
| 2026-05-01 08:44 | 47.69273 | 9.37380 | 19619 ft | 427 kts | 233° |
| 2026-05-01 08:44 | 47.67441 | 9.33999 | 19178 ft | 425 kts | 230° |
| 2026-05-01 08:45 | 47.65563 | 9.30602 | 18720 ft | 424 kts | 230° |
| 2026-05-01 08:45 | 47.63712 | 9.27245 | 18267 ft | 423 kts | 230° |
| 2026-05-01 08:45 | 47.61865 | 9.23875 | 17815 ft | 421 kts | 231° |
| 2026-05-01 08:45 | 47.60259 | 9.20264 | 17358 ft | 420 kts | 242° |
| 2026-05-01 08:46 | 47.59106 | 9.16381 | 16846 ft | 418 kts | 252° |
| 2026-05-01 08:46 | 47.58418 | 9.12227 | 16406 ft | 416 kts | 259° |
| 2026-05-01 08:46 | 47.57955 | 9.08018 | 15930 ft | 413 kts | 265° |
| 2026-05-01 08:46 | 47.57972 | 9.03799 | 15225 ft | 406 kts | 278° |
| 2026-05-01 08:47 | 47.58522 | 8.99824 | 14792 ft | 389 kts | 289° |
| 2026-05-01 08:47 | 47.59456 | 8.96151 | 14332 ft | 375 kts | 294° |
| 2026-05-01 08:47 | 47.60436 | 8.92657 | 13871 ft | 364 kts | 294° |
| 2026-05-01 08:47 | 47.61370 | 8.89256 | 13420 ft | 354 kts | 294° |
| 2026-05-01 08:48 | 47.62271 | 8.85919 | 13016 ft | 345 kts | 293° |
| 2026-05-01 08:48 | 47.63002 | 8.82588 | 12580 ft | 339 kts | 279° |
| 2026-05-01 08:48 | 47.62957 | 8.79143 | 12131 ft | 334 kts | 257° |
| 2026-05-01 08:48 | 47.62191 | 8.75915 | 11732 ft | 327 kts | 246° |
| 2026-05-01 08:49 | 47.61308 | 8.72884 | 11346 ft | 321 kts | 247° |
| 2026-05-01 08:49 | 47.60464 | 8.69871 | 11243 ft | 304 kts | 248° |
| 2026-05-01 08:49 | 47.59694 | 8.67080 | 11241 ft | 285 kts | 248° |
| 2026-05-01 08:49 | 47.59045 | 8.64407 | 11244 ft | 267 kts | 259° |
| 2026-05-01 08:50 | 47.58943 | 8.61760 | 11248 ft | 251 kts | 280° |
| 2026-05-01 08:50 | 47.59404 | 8.59323 | 11245 ft | 250 kts | 298° |
| 2026-05-01 08:50 | 47.60332 | 8.57185 | 11234 ft | 247 kts | 316° |
| 2026-05-01 08:50 | 47.61569 | 8.55433 | 11239 ft | 244 kts | 321° |
| 2026-05-01 08:51 | 47.62838 | 8.53759 | 11236 ft | 244 kts | 321° |
| 2026-05-01 08:51 | 47.64068 | 8.52076 | 11217 ft | 236 kts | 320° |
| 2026-05-01 08:51 | 47.65263 | 8.50418 | 10797 ft | 235 kts | 320° |
| 2026-05-01 08:51 | 47.66466 | 8.48764 | 10289 ft | 238 kts | 320° |
| 2026-05-01 08:52 | 47.67675 | 8.47110 | 9791 ft | 240 kts | 320° |
| 2026-05-01 08:52 | 47.68903 | 8.45424 | 9287 ft | 241 kts | 320° |
| 2026-05-01 08:52 | 47.70081 | 8.43703 | 8995 ft | 234 kts | 317° |
| 2026-05-01 08:52 | 47.71197 | 8.42012 | 8734 ft | 227 kts | 317° |
| 2026-05-01 08:53 | 47.72278 | 8.40375 | 8476 ft | 219 kts | 317° |
| 2026-05-01 08:53 | 47.73336 | 8.38766 | 8135 ft | 217 kts | 317° |
| 2026-05-01 08:53 | 47.74375 | 8.37195 | 7797 ft | 213 kts | 317° |
| 2026-05-01 08:53 | 47.75406 | 8.35641 | 7420 ft | 211 kts | 317° |
| 2026-05-01 08:54 | 47.76455 | 8.34145 | 7046 ft | 209 kts | 318° |
| 2026-05-01 08:54 | 47.77511 | 8.32667 | 6675 ft | 207 kts | 318° |
| 2026-05-01 08:54 | 47.78550 | 8.31224 | 6309 ft | 206 kts | 318° |
| 2026-05-01 08:54 | 47.79597 | 8.29780 | 5936 ft | 205 kts | 318° |
| 2026-05-01 08:55 | 47.80502 | 8.28172 | 5590 ft | 204 kts | 295° |
| 2026-05-01 08:55 | 47.80697 | 8.26164 | 5384 ft | 196 kts | 256° |
| 2026-05-01 08:55 | 47.80033 | 8.24471 | 5143 ft | 187 kts | 214° |
| 2026-05-01 08:55 | 47.78865 | 8.23869 | 4916 ft | 176 kts | 175° |
| 2026-05-01 08:56 | 47.77676 | 8.24075 | 4718 ft | 170 kts | 168° |
| 2026-05-01 08:56 | 47.76518 | 8.24344 | 4475 ft | 168 kts | 168° |
| 2026-05-01 08:56 | 47.75343 | 8.24621 | 4297 ft | 176 kts | 168° |
| 2026-05-01 08:56 | 47.74119 | 8.24915 | 4104 ft | 183 kts | 168° |
| 2026-05-01 08:57 | 47.72868 | 8.25216 | 3929 ft | 179 kts | 168° |
| 2026-05-01 08:57 | 47.71637 | 8.25531 | 3921 ft | 179 kts | 166° |
| 2026-05-01 08:57 | 47.70410 | 8.25911 | 3914 ft | 181 kts | 165° |
| 2026-05-01 08:57 | 47.69185 | 8.26295 | 3915 ft | 180 kts | 165° |
| 2026-05-01 08:58 | 47.67976 | 8.26810 | 3908 ft | 178 kts | 148° |
| 2026-05-01 08:58 | 47.67002 | 8.27909 | 3928 ft | 176 kts | 135° |
| 2026-05-01 08:58 | 47.66105 | 8.29129 | 3924 ft | 176 kts | 134° |
| 2026-05-01 08:58 | 47.65196 | 8.30373 | 3921 ft | 176 kts | 134° |
| 2026-05-01 08:59 | 47.64299 | 8.31603 | 3925 ft | 176 kts | 134° |
| 2026-05-01 08:59 | 47.63412 | 8.32823 | 3928 ft | 175 kts | 134° |
| 2026-05-01 08:59 | 47.62510 | 8.34061 | 3929 ft | 176 kts | 134° |
| 2026-05-01 08:59 | 47.61606 | 8.35301 | 3924 ft | 177 kts | 134° |
| 2026-05-01 09:00 | 47.60704 | 8.36539 | 3923 ft | 177 kts | 134° |
| 2026-05-01 09:00 | 47.59803 | 8.37774 | 3922 ft | 178 kts | 134° |
| 2026-05-01 09:00 | 47.58884 | 8.39033 | 3933 ft | 178 kts | 134° |
| 2026-05-01 09:00 | 47.57977 | 8.40275 | 3938 ft | 178 kts | 134° |
| 2026-05-01 09:01 | 47.57060 | 8.41531 | 3742 ft | 181 kts | 134° |
| 2026-05-01 09:01 | 47.56175 | 8.42741 | 3547 ft | 166 kts | 134° |
| 2026-05-01 09:01 | 47.55362 | 8.43853 | 3304 ft | 153 kts | 134° |
| 2026-05-01 09:01 | 47.54561 | 8.44951 | 3132 ft | 160 kts | 134° |
| 2026-05-01 09:02 | 47.53734 | 8.46080 | 2900 ft | 162 kts | 134° |
| 2026-05-01 09:02 | 47.52912 | 8.47203 | 2678 ft | 161 kts | 134° |
| 2026-05-01 09:02 | 47.52087 | 8.48330 | 2450 ft | 160 kts | 135° |
| 2026-05-01 09:02 | 47.51283 | 8.49426 | 2254 ft | 158 kts | 134° |
| 2026-05-01 09:03 | 47.50471 | 8.50534 | 2056 ft | 155 kts | 135° |
| 2026-05-01 09:03 | 47.49678 | 8.51619 | 1841 ft | 154 kts | 136° |
| 2026-05-01 09:03 | 47.48896 | 8.52675 | 1672 ft | 151 kts | 136° |
| 2026-05-01 09:03 | 47.48117 | 8.53747 | 1443 ft | 152 kts | 136° |
| 2026-05-01 09:04 | 47.47363 | 8.54745 | 1383 ft | 131 kts | 135° |
| 2026-05-01 09:04 | 47.46908 | 8.55380 | 1384 ft | 48 kts | 136° |
| 2026-05-01 09:04 | 47.46865 | 8.55435 | 1384 ft | 0 kts | 138° |
| 2026-05-01 09:05 | 47.46843 | 8.55463 | 1384 ft | 9 kts | 141° |
| 2026-05-01 09:05 | 47.46781 | 8.55541 | 1386 ft | 12 kts | 140° |
| 2026-05-01 09:05 | 47.46703 | 8.55619 | 1387 ft | 14 kts | 152° |
| 2026-05-01 09:05 | 47.46609 | 8.55670 | 1387 ft | 12 kts | 165° |
| 2026-05-01 09:06 | 47.46529 | 8.55700 | 1388 ft | 12 kts | 164° |
| 2026-05-01 09:06 | 47.46457 | 8.55725 | 1388 ft | 10 kts | 168° |
| 2026-05-01 09:06 | 47.46386 | 8.55759 | 1389 ft | 11 kts | 147° |
| 2026-05-01 09:06 | 47.46324 | 8.55838 | 1391 ft | 10 kts | 136° |
| 2026-05-01 09:07 | 47.46278 | 8.55885 | 1393 ft | 8 kts | 159° |
| 2026-05-01 09:07 | 47.46230 | 8.55856 | 1393 ft | 10 kts | 233° |
| 2026-05-01 09:07 | 47.46195 | 8.55794 | 1392 ft | 6 kts | 208° |
| 2026-05-01 09:07 | 47.46165 | 8.55784 | 1393 ft | 0 kts | 187° |
| 2026-05-01 09:08 | 47.46162 | 8.55783 | 1393 ft | 0 kts | 190° |